Terminal Aerodrome Forecast
Issued by NWS Grand Forks, ND

Current Version | Previous Version | Text Only | Print | Product List | Glossary On
Versions: 1 2 3 4 5 6 7 8 9 10 11 12 13 14 15 16 17
000
FTUS43 KFGF 211720
TAFFAR
TAF
KFAR 211720Z 2118/2218 13005KT P6SM OVC012
      TEMPO 2120/2124 5SM -DZ OVC006
     FM221100 32004KT 2SM -DZ BR OVC003
     FM221700 30005KT P6SM -DZ OVC008=

USA.gov is the U.S. government's official web portal to all federal, state and local government web resources and services.